createdAt,value
2023-02-08T00:01:10.800Z,6.57
2023-02-08T00:03:38.974Z,6.07
2023-02-08T00:06:08.265Z,6.00
2023-02-08T00:08:37.028Z,5.80
2023-02-08T00:11:06.146Z,6.63
2023-02-08T00:13:34.280Z,6.80
2023-02-08T00:16:01.736Z,6.25
2023-02-08T00:18:29.656Z,7.07
2023-02-08T00:20:57.382Z,6.78
2023-02-08T00:23:26.347Z,6.70
2023-02-08T00:25:53.968Z,6.82
2023-02-08T00:28:21.856Z,6.00
2023-02-08T00:30:49.522Z,6.05
2023-02-08T00:33:17.293Z,6.00
2023-02-08T00:35:44.741Z,6.40
2023-02-08T00:38:12.651Z,5.43
2023-02-08T00:40:40.383Z,6.25
2023-02-08T00:43:08.052Z,5.40
2023-02-08T00:45:35.638Z,5.32
2023-02-08T00:48:03.068Z,5.57
2023-02-08T00:50:30.662Z,5.15
2023-02-08T00:52:59.736Z,6.32
2023-02-08T00:55:27.473Z,6.68
2023-02-08T00:57:55.007Z,6.47
2023-02-08T01:00:22.490Z,6.57
2023-02-08T01:02:50.056Z,5.93
2023-02-08T01:05:18.178Z,6.15
2023-02-08T01:07:45.696Z,6.38
2023-02-08T01:10:13.162Z,7.43
2023-02-08T01:12:41.505Z,7.40
2023-02-08T01:15:09.470Z,6.20
2023-02-08T01:17:37.028Z,6.93
2023-02-08T01:20:04.720Z,6.90
2023-02-08T01:22:32.207Z,7.60
2023-02-08T01:25:01.588Z,7.65
2023-02-08T01:27:30.188Z,7.78
2023-02-08T01:29:57.553Z,7.55
2023-02-08T01:32:25.260Z,8.10
2023-02-08T01:34:52.656Z,8.20
2023-02-08T01:37:20.158Z,8.25
2023-02-08T01:39:48.079Z,7.97
2023-02-08T01:42:18.994Z,7.97
2023-02-08T01:45:21.238Z,8.48
2023-02-08T01:47:52.284Z,7.70
2023-02-08T01:50:23.033Z,8.30
2023-02-08T01:52:51.762Z,8.27
2023-02-08T01:55:26.031Z,7.72
2023-02-08T01:57:57.714Z,7.60
2023-02-08T02:00:26.127Z,8.77
2023-02-08T02:02:57.036Z,8.55
2023-02-08T02:05:28.560Z,8.25
2023-02-08T02:07:57.761Z,8.77
2023-02-08T02:10:27.027Z,8.57
2023-02-08T02:12:58.196Z,8.32
2023-02-08T02:15:25.708Z,8.55
2023-02-08T02:17:53.261Z,8.48
2023-02-08T02:20:57.672Z,9.68
2023-02-08T02:23:43.898Z,7.78
2023-02-08T02:26:30.200Z,9.18
2023-02-08T02:29:15.742Z,8.02
2023-02-08T02:31:57.752Z,9.05
2023-02-08T02:34:50.484Z,8.60
2023-02-08T02:37:49.717Z,8.88
2023-02-08T02:43:42.072Z,8.10
2023-02-08T02:46:24.711Z,8.05
2023-02-08T02:49:24.763Z,7.32
2023-02-08T02:52:12.518Z,7.22
2023-02-08T02:54:50.893Z,6.88
2023-02-08T02:57:25.533Z,6.50
2023-02-08T02:59:53.794Z,7.35
2023-02-08T03:02:22.365Z,8.18
2023-02-08T03:04:54.791Z,6.85
2023-02-08T03:07:40.060Z,7.47
2023-02-08T03:10:39.063Z,7.15
2023-02-08T03:13:26.987Z,7.25
2023-02-08T03:16:04.516Z,6.70
2023-02-08T03:18:44.432Z,7.25
2023-02-08T03:21:28.390Z,6.97
2023-02-08T03:24:15.280Z,7.60
2023-02-08T03:26:43.077Z,7.70
2023-02-08T03:29:29.454Z,7.78
2023-02-08T03:32:04.311Z,8.13
2023-02-08T03:35:07.212Z,7.00
2023-02-08T03:37:44.219Z,8.05
2023-02-08T03:40:22.062Z,7.57
2023-02-08T03:42:53.174Z,7.43
2023-02-08T03:45:33.161Z,8.48
2023-02-08T03:48:04.873Z,7.13
2023-02-08T03:50:38.071Z,7.15
2023-02-08T03:53:09.772Z,8.00
2023-02-08T03:55:39.173Z,8.05
2023-02-08T03:58:16.145Z,7.40
2023-02-08T04:03:21.102Z,6.68
2023-02-08T04:05:49.964Z,7.20
2023-02-08T04:08:17.545Z,8.48
2023-02-08T04:10:47.045Z,8.52
2023-02-08T04:13:14.600Z,7.22
2023-02-08T04:15:42.085Z,7.13
2023-02-08T04:18:09.728Z,7.97
2023-02-08T04:20:41.937Z,7.15
2023-02-08T04:23:15.644Z,7.30
2023-02-08T04:25:43.696Z,7.60
2023-02-08T04:28:11.181Z,6.78
2023-02-08T04:30:39.418Z,6.78
2023-02-08T04:33:07.277Z,7.43
2023-02-08T04:35:35.060Z,7.60
2023-02-08T04:38:02.519Z,7.38
2023-02-08T04:40:31.244Z,7.53
2023-02-08T04:43:25.281Z,7.50
2023-02-08T04:45:52.896Z,7.22
2023-02-08T04:48:20.647Z,7.68
2023-02-08T04:50:48.792Z,6.82
2023-02-08T04:53:16.316Z,7.28
2023-02-08T05:00:39.348Z,6.18
2023-02-08T05:03:07.669Z,7.25
2023-02-08T05:05:36.371Z,7.28
2023-02-08T05:08:04.387Z,7.15
2023-02-08T05:10:31.814Z,7.68
2023-02-08T05:12:59.946Z,7.88
2023-02-08T05:25:21.063Z,6.93
2023-02-08T05:27:48.763Z,7.05
2023-02-08T05:30:17.379Z,6.53
2023-02-08T05:32:45.852Z,7.32
2023-02-08T05:35:15.428Z,7.03
2023-02-08T05:37:43.667Z,7.60
2023-02-08T05:40:13.406Z,8.15
2023-02-08T05:42:42.623Z,8.38
2023-02-08T05:45:11.203Z,6.82
2023-02-08T05:47:38.866Z,7.72
2023-02-08T05:50:07.790Z,7.13
2023-02-08T05:52:35.477Z,7.68
2023-02-08T05:55:03.073Z,7.90
2023-02-08T05:57:32.276Z,7.63
2023-02-08T06:00:00.690Z,7.88
2023-02-08T06:02:28.402Z,7.72
2023-02-08T06:04:55.899Z,7.70
2023-02-08T06:07:23.541Z,8.35
2023-02-08T06:09:51.000Z,8.55
2023-02-08T06:12:19.052Z,8.60
2023-02-08T06:14:46.512Z,7.97
2023-02-08T06:34:35.159Z,7.55
2023-02-08T06:37:05.319Z,8.85
2023-02-08T06:39:33.095Z,7.30
2023-02-08T06:42:00.613Z,8.18
2023-02-08T06:44:30.104Z,8.32
2023-02-08T06:46:57.682Z,8.05
2023-02-08T06:49:25.412Z,8.77
2023-02-08T06:51:53.044Z,8.15
2023-02-08T06:54:20.609Z,8.90
2023-02-08T06:56:51.871Z,8.43
2023-02-08T06:59:21.010Z,8.68
2023-02-08T07:01:48.424Z,9.10
2023-02-08T07:04:15.974Z,9.15
2023-02-08T07:06:43.604Z,8.70
2023-02-08T07:09:11.182Z,8.25
2023-02-08T07:11:38.708Z,8.30
2023-02-08T07:14:06.226Z,8.10
2023-02-08T07:16:34.189Z,8.63
2023-02-08T07:19:01.996Z,9.25
2023-02-08T07:21:30.371Z,8.30
2023-02-08T07:23:57.875Z,8.50
2023-02-08T07:26:25.338Z,8.70
2023-02-08T07:28:53.563Z,8.60
2023-02-08T07:31:21.462Z,9.07
2023-02-08T07:33:49.516Z,9.55
2023-02-08T07:36:17.124Z,9.07
2023-02-08T07:38:44.799Z,10.77
2023-02-08T07:41:14.722Z,9.85
2023-02-08T07:43:43.098Z,8.93
2023-02-08T07:46:19.553Z,10.15
2023-02-08T07:48:49.279Z,10.38
2023-02-08T07:51:16.740Z,10.13
2023-02-08T07:53:44.478Z,10.63
2023-02-08T07:56:12.194Z,10.77
2023-02-08T08:01:21.035Z,9.65
2023-02-08T08:03:51.521Z,9.52
2023-02-08T08:06:20.571Z,11.57
2023-02-08T08:08:48.654Z,10.57
2023-02-08T08:11:18.284Z,10.77
2023-02-08T08:13:46.322Z,10.35
2023-02-08T08:16:14.394Z,10.48
2023-02-08T08:18:41.852Z,10.50
2023-02-08T08:21:10.142Z,10.35
2023-02-08T08:23:37.932Z,10.10
2023-02-08T08:26:10.654Z,10.30
2023-02-08T08:28:38.353Z,9.40
2023-02-08T08:31:22.570Z,10.65
2023-02-08T08:33:50.654Z,10.65
2023-02-08T08:36:18.509Z,10.88
2023-02-08T08:38:45.916Z,10.02
2023-02-08T08:41:18.060Z,11.00
2023-02-08T08:43:45.970Z,10.80
2023-02-08T08:46:13.737Z,10.93
2023-02-08T08:48:41.234Z,10.90
2023-02-08T08:51:08.763Z,11.07
2023-02-08T08:53:37.157Z,10.25
2023-02-08T08:56:05.415Z,11.52
2023-02-08T08:58:33.047Z,11.02
2023-02-08T09:01:00.647Z,11.27
2023-02-08T09:03:29.102Z,12.32
2023-02-08T09:05:56.922Z,11.50
2023-02-08T09:08:24.358Z,11.57
2023-02-08T09:10:52.683Z,10.95
2023-02-08T09:13:21.384Z,11.77
2023-02-08T09:15:49.346Z,12.48
2023-02-08T09:18:17.336Z,11.65
2023-02-08T09:20:45.104Z,12.38
2023-02-08T09:23:12.911Z,12.93
2023-02-08T09:25:40.480Z,12.55
2023-02-08T09:28:10.218Z,11.57
2023-02-08T09:30:37.785Z,13.63
2023-02-08T09:33:05.577Z,12.98
2023-02-08T09:35:33.167Z,12.77
2023-02-08T09:38:02.628Z,12.45
2023-02-08T09:41:25.915Z,12.20
2023-02-08T09:44:12.521Z,13.02
2023-02-08T09:46:43.627Z,13.27
2023-02-08T09:49:19.348Z,12.52
2023-02-08T09:51:52.816Z,12.68
2023-02-08T09:54:32.049Z,12.60
2023-02-08T09:57:04.261Z,12.40
2023-02-08T09:59:34.295Z,12.68
2023-02-08T10:02:25.039Z,12.75
2023-02-08T10:05:00.463Z,12.70
2023-02-08T10:07:29.786Z,12.02
2023-02-08T10:10:01.197Z,11.70
2023-02-08T10:12:28.645Z,13.45
2023-02-08T10:15:21.967Z,14.73
2023-02-08T10:18:24.538Z,14.70
2023-02-08T10:21:17.179Z,13.32
2023-02-08T10:24:10.014Z,13.05
2023-02-08T10:26:47.948Z,13.32
2023-02-08T10:29:21.641Z,12.93
2023-02-08T10:31:55.452Z,14.10
2023-02-08T10:34:45.123Z,14.07
2023-02-08T10:37:21.838Z,13.15
2023-02-08T10:39:50.807Z,13.73
2023-02-08T10:42:22.436Z,15.30
2023-02-08T10:45:22.534Z,13.43
2023-02-08T10:47:58.563Z,13.23
2023-02-08T10:50:38.221Z,14.60
2023-02-08T10:53:06.243Z,14.02
2023-02-08T10:55:40.120Z,14.68
2023-02-08T10:58:07.893Z,13.55
2023-02-08T11:00:39.343Z,13.65
2023-02-08T11:03:22.560Z,13.15
2023-02-08T11:05:50.829Z,14.02
2023-02-08T11:08:19.920Z,12.98
2023-02-08T11:10:56.584Z,13.50
2023-02-08T11:13:36.819Z,13.30
2023-02-08T11:16:07.545Z,13.23
2023-02-08T11:19:01.281Z,12.90
2023-02-08T11:21:36.588Z,13.77
2023-02-08T11:24:29.957Z,12.95
2023-02-08T11:26:57.533Z,13.00
2023-02-08T11:29:30.862Z,12.15
2023-02-08T11:32:00.707Z,13.27
2023-02-08T11:34:38.486Z,12.48
2023-02-08T11:37:23.373Z,12.93
2023-02-08T11:39:52.112Z,12.98
2023-02-08T11:42:47.105Z,13.43
2023-02-08T11:45:45.914Z,13.65
2023-02-08T11:48:26.931Z,13.13
2023-02-08T11:50:57.920Z,13.35
2023-02-08T11:53:36.496Z,12.80
2023-02-08T11:56:17.441Z,12.82
2023-02-08T11:59:12.993Z,13.25
2023-02-08T12:01:42.438Z,12.07
2023-02-08T12:04:15.012Z,13.15
2023-02-08T12:07:23.112Z,12.52
2023-02-08T12:10:20.959Z,13.25
2023-02-08T12:15:58.829Z,12.98
2023-02-08T12:18:51.249Z,12.93
2023-02-08T12:21:42.632Z,13.80
2023-02-08T12:24:42.648Z,13.35
2023-02-08T12:27:28.379Z,12.65
2023-02-08T12:30:23.719Z,13.73
2023-02-08T12:33:13.759Z,14.15
2023-02-08T12:36:23.094Z,14.50
2023-02-08T12:39:30.974Z,15.00
2023-02-08T12:42:22.094Z,13.82
2023-02-08T12:45:11.100Z,14.63
2023-02-08T12:48:03.308Z,14.18
2023-02-08T12:50:31.599Z,13.75
2023-02-08T12:53:22.532Z,14.63
2023-02-08T12:55:52.032Z,14.77
2023-02-08T12:58:31.300Z,15.93
2023-02-08T13:01:08.089Z,18.33
2023-02-08T13:06:18.094Z,27.17
2023-02-08T13:09:03.719Z,30.77
2023-02-08T13:11:50.082Z,33.20
2023-02-08T13:14:23.643Z,30.27
2023-02-08T13:16:58.900Z,31.35
2023-02-08T13:20:00.135Z,25.88
2023-02-08T13:22:37.304Z,25.25
2023-02-08T13:25:14.295Z,21.55
2023-02-08T13:27:41.861Z,20.20
2023-02-08T13:30:18.476Z,19.15
2023-02-08T13:32:46.835Z,18.88
2023-02-08T13:35:30.569Z,16.95
2023-02-08T13:38:05.984Z,14.07
2023-02-08T13:40:36.450Z,12.30
2023-02-08T13:43:33.968Z,13.13
2023-02-08T13:46:03.221Z,13.32
2023-02-08T13:48:49.300Z,13.55
2023-02-08T13:51:29.181Z,13.90
2023-02-08T13:53:56.861Z,14.35
2023-02-08T13:56:41.463Z,12.50
2023-02-08T13:59:27.642Z,19.33
2023-02-08T14:02:14.601Z,13.07
2023-02-08T14:04:43.525Z,13.18
2023-02-08T14:07:46.704Z,13.00
2023-02-08T14:10:20.889Z,11.75
2023-02-08T14:13:27.072Z,13.20
2023-02-08T14:16:25.532Z,12.68
2023-02-08T14:18:56.033Z,8.45
2023-02-08T14:21:34.837Z,12.25
2023-02-08T14:24:09.003Z,13.20
2023-02-08T14:26:37.204Z,12.20
2023-02-08T14:29:06.954Z,13.73
2023-02-08T14:31:42.512Z,14.43
2023-02-08T14:34:34.327Z,12.88
2023-02-08T14:37:06.946Z,13.77
2023-02-08T14:39:37.402Z,14.45
2023-02-08T14:42:14.054Z,14.07
2023-02-08T14:44:42.269Z,14.32
2023-02-08T14:47:37.055Z,13.73
2023-02-08T14:50:15.938Z,12.55
2023-02-08T14:52:53.957Z,13.57
2023-02-08T14:55:27.697Z,13.77
2023-02-08T14:57:59.157Z,13.30
2023-02-08T15:00:38.275Z,12.57
2023-02-08T15:03:14.805Z,13.15
2023-02-08T15:06:03.793Z,12.98
2023-02-08T15:08:31.416Z,12.88
2023-02-08T15:10:59.334Z,12.13
2023-02-08T15:13:26.969Z,11.82
2023-02-08T15:15:57.493Z,13.07
2023-02-08T15:18:31.295Z,12.70
2023-02-08T15:21:08.485Z,11.77
2023-02-08T15:23:35.988Z,12.85
2023-02-08T15:26:20.654Z,11.63
2023-02-08T15:28:48.122Z,11.25
2023-02-08T15:31:21.961Z,12.98
2023-02-08T15:33:52.143Z,12.90
2023-02-08T15:36:30.416Z,13.07
2023-02-08T15:39:01.651Z,14.02
2023-02-08T15:41:32.305Z,13.07
2023-02-08T15:44:25.475Z,13.73
2023-02-08T15:49:28.255Z,13.75
2023-02-08T15:51:59.338Z,15.75
2023-02-08T15:54:27.256Z,13.35
2023-02-08T15:56:56.207Z,12.52
2023-02-08T15:59:33.799Z,13.13
2023-02-08T16:02:19.626Z,13.63
2023-02-08T16:04:47.504Z,12.55
2023-02-08T16:07:39.890Z,11.57
2023-02-08T16:10:21.211Z,11.60
2023-02-08T16:12:54.077Z,12.45
2023-02-08T16:15:40.175Z,13.30
2023-02-08T16:18:44.762Z,12.68
2023-02-08T16:21:28.365Z,11.48
2023-02-08T16:24:04.716Z,11.57
2023-02-08T16:26:42.489Z,12.02
2023-02-08T16:29:27.640Z,11.95
2023-02-08T16:32:04.456Z,11.57
2023-02-08T16:34:38.346Z,9.48
2023-02-08T16:37:18.763Z,11.30
2023-02-08T16:40:02.844Z,12.07
2023-02-08T16:42:40.104Z,11.55
2023-02-08T16:45:12.846Z,12.48
2023-02-08T16:47:55.010Z,11.50
2023-02-08T16:50:24.868Z,12.60
2023-02-08T16:53:01.535Z,12.25
2023-02-08T16:55:32.898Z,13.07
2023-02-08T16:58:00.427Z,12.77
2023-02-08T17:00:33.924Z,13.35
2023-02-08T17:03:02.709Z,13.43
2023-02-08T17:05:36.052Z,12.23
2023-02-08T17:08:07.932Z,10.25
2023-02-08T17:10:36.115Z,9.68
2023-02-08T17:13:19.239Z,9.70
2023-02-08T17:15:50.175Z,10.18
2023-02-08T17:18:18.240Z,9.15
2023-02-08T17:20:46.041Z,8.38
2023-02-08T17:23:16.306Z,9.77
2023-02-08T17:25:44.870Z,8.73
2023-02-08T17:28:18.460Z,7.75
2023-02-08T17:30:48.197Z,8.00
2023-02-08T17:33:18.885Z,8.27
2023-02-08T17:35:51.268Z,8.27
2023-02-08T17:38:20.319Z,9.98
2023-02-08T17:40:48.561Z,8.48
2023-02-08T17:43:17.401Z,8.50
2023-02-08T17:45:45.940Z,8.90
2023-02-08T17:48:13.732Z,8.23
2023-02-08T17:50:46.635Z,9.52
2023-02-08T17:53:14.334Z,8.50
2023-02-08T17:55:43.058Z,9.55
2023-02-08T17:58:11.775Z,11.02
2023-02-08T18:00:39.644Z,10.52
2023-02-08T18:03:07.250Z,10.77
2023-02-08T18:05:35.089Z,10.40
2023-02-08T18:08:02.709Z,9.50
2023-02-08T18:10:30.367Z,10.65
2023-02-08T18:12:57.884Z,10.18
2023-02-08T18:15:25.444Z,10.27
2023-02-08T18:17:53.067Z,9.77
2023-02-08T18:20:21.271Z,9.75
2023-02-08T18:22:48.694Z,9.38
2023-02-08T18:25:17.628Z,10.38
2023-02-08T18:27:45.032Z,9.43
2023-02-08T18:30:13.082Z,8.93
2023-02-08T18:32:40.513Z,8.95
2023-02-08T18:35:08.871Z,9.80
2023-02-08T18:37:38.467Z,8.82
2023-02-08T18:40:08.462Z,7.75
2023-02-08T18:42:36.486Z,8.10
2023-02-08T18:45:05.782Z,7.53
2023-02-08T18:47:39.446Z,7.20
2023-02-08T18:50:07.516Z,6.72
2023-02-08T18:52:34.988Z,7.57
2023-02-08T18:55:02.808Z,7.07
2023-02-08T18:57:30.443Z,6.88
2023-02-08T18:59:58.324Z,6.72
2023-02-08T19:02:26.502Z,8.57
2023-02-08T19:04:54.232Z,8.77
2023-02-08T19:07:22.877Z,8.52
2023-02-08T19:09:50.574Z,7.93
2023-02-08T19:12:19.089Z,7.90
2023-02-08T19:14:50.839Z,8.35
2023-02-08T19:17:19.239Z,8.68
2023-02-08T19:19:47.040Z,7.43
2023-02-08T19:22:15.899Z,7.95
2023-02-08T19:24:44.247Z,7.57
2023-02-08T19:27:12.063Z,7.78
2023-02-08T19:29:40.571Z,7.10
2023-02-08T19:32:08.391Z,6.38
2023-02-08T19:34:36.668Z,7.00
2023-02-08T19:37:04.691Z,7.65
2023-02-08T19:39:34.955Z,5.20
2023-02-08T19:42:02.858Z,7.13
2023-02-08T19:44:31.009Z,7.05
2023-02-08T19:46:59.046Z,7.38
2023-02-08T19:49:29.094Z,6.55
2023-02-08T19:51:57.629Z,5.00
2023-02-08T19:54:25.573Z,7.90
2023-02-08T19:56:54.800Z,6.10
2023-02-08T19:59:28.228Z,6.55
2023-02-08T20:01:56.675Z,7.90
2023-02-08T20:04:25.542Z,7.72
2023-02-08T20:06:54.812Z,6.50
2023-02-08T20:09:23.123Z,7.55
2023-02-08T20:11:57.356Z,8.05
2023-02-08T20:14:29.237Z,7.45
2023-02-08T20:16:57.336Z,7.65
2023-02-08T20:19:25.957Z,6.25
2023-02-08T20:21:53.602Z,7.75
2023-02-08T20:24:21.844Z,6.15
2023-02-08T20:26:50.605Z,5.85
2023-02-08T20:29:18.520Z,6.15
2023-02-08T20:31:48.816Z,7.05
2023-02-08T20:34:19.100Z,6.47
2023-02-08T20:37:05.365Z,7.43
2023-02-08T20:39:35.097Z,7.57
2023-02-08T20:42:03.340Z,6.45
2023-02-08T20:44:32.340Z,6.60
2023-02-08T20:47:00.328Z,6.70
2023-02-08T20:49:28.042Z,6.47
2023-02-08T20:51:55.734Z,6.88
2023-02-08T20:54:26.524Z,6.72
2023-02-08T20:56:54.529Z,6.90
2023-02-08T20:59:22.905Z,6.70
2023-02-08T21:01:51.007Z,7.30
2023-02-08T21:04:20.350Z,6.55
2023-02-08T21:06:48.290Z,7.63
2023-02-08T21:09:18.816Z,7.03
2023-02-08T21:11:47.494Z,6.70
2023-02-08T21:14:20.904Z,7.28
2023-02-08T21:16:51.275Z,7.32
2023-02-08T21:19:20.757Z,7.35
2023-02-08T21:21:58.025Z,7.85
2023-02-08T21:24:26.796Z,8.10
2023-02-08T21:26:57.008Z,7.70
2023-02-08T21:29:25.314Z,7.75
2023-02-08T21:31:54.385Z,8.40
2023-02-08T21:34:22.423Z,8.60
2023-02-08T21:36:50.249Z,8.23
2023-02-08T21:39:18.340Z,8.10
2023-02-08T21:41:45.830Z,8.40
2023-02-08T21:44:13.449Z,7.90
2023-02-08T21:46:41.348Z,8.10
2023-02-08T21:49:27.961Z,8.07
2023-02-08T21:52:14.094Z,7.93
2023-02-08T21:54:41.870Z,7.68
2023-02-08T21:57:24.547Z,7.40
2023-02-08T21:59:55.079Z,7.97
2023-02-08T22:02:29.906Z,7.55
2023-02-08T22:04:59.391Z,6.80
2023-02-08T22:07:28.215Z,6.40
2023-02-08T22:09:56.280Z,5.70
2023-02-08T22:12:23.763Z,6.10
2023-02-08T22:14:51.358Z,6.07
2023-02-08T22:17:18.939Z,5.75
2023-02-08T22:19:46.736Z,6.93
2023-02-08T22:22:14.209Z,5.68
2023-02-08T22:24:41.870Z,5.35
2023-02-08T22:27:10.393Z,4.97
2023-02-08T22:29:37.952Z,5.60
2023-02-08T22:32:06.056Z,5.25
2023-02-08T22:34:33.585Z,5.90
2023-02-08T22:37:03.850Z,5.38
2023-02-08T22:39:33.057Z,5.75
2023-02-08T22:42:00.532Z,4.88
2023-02-08T22:44:28.072Z,5.63
2023-02-08T22:46:57.428Z,6.15
2023-02-08T22:49:24.942Z,5.90
2023-02-08T22:51:52.315Z,5.50
2023-02-08T22:54:19.933Z,4.72
2023-02-08T22:56:47.307Z,5.75
2023-02-08T22:59:14.680Z,5.35
2023-02-08T23:01:42.182Z,6.18
2023-02-08T23:04:10.010Z,5.93
2023-02-08T23:06:37.401Z,5.05
2023-02-08T23:09:06.253Z,6.05
2023-02-08T23:11:34.112Z,5.60
2023-02-08T23:14:01.591Z,6.38
2023-02-08T23:16:29.057Z,5.50
2023-02-08T23:18:56.499Z,5.45
2023-02-08T23:21:24.028Z,5.45
2023-02-08T23:23:51.546Z,6.07
2023-02-08T23:26:21.439Z,5.70
2023-02-08T23:28:51.576Z,5.85
2023-02-08T23:31:20.465Z,6.05
2023-02-08T23:33:48.285Z,5.80
2023-02-08T23:36:19.008Z,4.97
2023-02-08T23:38:46.660Z,5.35
2023-02-08T23:41:17.853Z,4.40
2023-02-08T23:43:45.357Z,5.63
2023-02-08T23:46:25.396Z,5.82
2023-02-08T23:48:53.516Z,6.05
2023-02-08T23:51:23.230Z,7.10
2023-02-08T23:53:51.475Z,6.47
2023-02-08T23:56:31.978Z,5.85
2023-02-08T23:59:00.225Z,6.32
